createdAt,value
2023-05-19T00:01:17.794Z,85.70
2023-05-19T00:03:52.742Z,85.82
2023-05-19T00:06:27.270Z,85.61
2023-05-19T00:09:12.673Z,86.57
2023-05-19T00:11:40.437Z,86.42
2023-05-19T00:14:09.597Z,86.64
2023-05-19T00:16:40.605Z,86.94
2023-05-19T00:19:10.047Z,86.26
2023-05-19T00:21:40.630Z,86.73
2023-05-19T00:24:07.532Z,86.85
2023-05-19T00:26:34.351Z,87.29
2023-05-19T00:29:05.616Z,86.93
2023-05-19T00:31:33.973Z,87.35
2023-05-19T00:34:01.252Z,86.99
2023-05-19T00:36:28.472Z,86.66
2023-05-19T00:38:56.010Z,87.01
2023-05-19T00:41:22.766Z,87.83
2023-05-19T00:43:50.679Z,87.67
2023-05-19T00:46:18.956Z,87.53
2023-05-19T00:48:46.015Z,88.08
2023-05-19T00:51:16.571Z,87.47
2023-05-19T00:53:48.402Z,87.38
2023-05-19T00:56:16.674Z,88.31
2023-05-19T00:58:44.446Z,88.16
2023-05-19T01:01:12.176Z,88.38
2023-05-19T01:03:40.800Z,87.45
2023-05-19T01:06:08.094Z,88.13
2023-05-19T01:08:37.104Z,88.00
2023-05-19T01:11:08.285Z,88.82
2023-05-19T01:13:36.317Z,88.50
2023-05-19T01:16:18.197Z,88.81
2023-05-19T01:18:47.593Z,89.50
2023-05-19T01:21:38.857Z,89.34
2023-05-19T01:24:13.237Z,89.86
2023-05-19T01:27:04.966Z,89.10
2023-05-19T01:30:08.002Z,89.64
2023-05-19T01:32:35.955Z,89.38
2023-05-19T01:35:04.477Z,89.33
2023-05-19T01:37:31.914Z,89.66
2023-05-19T01:39:58.919Z,90.46
2023-05-19T01:42:27.247Z,90.36
2023-05-19T01:44:55.415Z,90.01
2023-05-19T01:47:22.645Z,90.13
2023-05-19T01:49:49.324Z,90.86
2023-05-19T01:52:16.078Z,90.53
2023-05-19T01:54:42.753Z,90.57
2023-05-19T01:57:32.342Z,90.58
2023-05-19T02:00:19.298Z,90.72
2023-05-19T02:03:23.637Z,91.06
2023-05-19T02:06:03.410Z,91.45
2023-05-19T02:08:51.261Z,92.11
2023-05-19T02:11:40.604Z,92.40
2023-05-19T02:14:34.115Z,93.38
2023-05-19T02:17:04.336Z,92.89
2023-05-19T02:19:35.319Z,93.14
2023-05-19T02:22:02.253Z,92.51
2023-05-19T02:24:28.902Z,92.98
2023-05-19T02:26:55.558Z,93.23
2023-05-19T02:29:22.098Z,93.69
2023-05-19T02:31:50.508Z,93.79
2023-05-19T02:34:17.219Z,93.99
2023-05-19T02:36:44.147Z,93.93
2023-05-19T02:39:11.586Z,94.60
2023-05-19T02:41:38.758Z,94.49
2023-05-19T02:44:05.530Z,95.02
2023-05-19T02:46:32.725Z,94.37
2023-05-19T02:48:59.561Z,94.16
2023-05-19T02:51:27.729Z,93.74
2023-05-19T02:53:54.428Z,94.37
2023-05-19T02:56:21.752Z,93.95
2023-05-19T02:58:48.535Z,94.01
2023-05-19T03:01:16.608Z,93.96
2023-05-19T03:03:43.550Z,94.28
2023-05-19T03:06:10.223Z,94.92
2023-05-19T03:08:36.847Z,94.18
2023-05-19T03:11:03.739Z,94.39
2023-05-19T03:13:30.424Z,94.54
2023-05-19T03:15:58.798Z,93.58
2023-05-19T03:18:28.721Z,94.06
2023-05-19T03:20:55.544Z,93.88
2023-05-19T03:23:22.591Z,93.17
2023-05-19T03:25:49.250Z,92.61
2023-05-19T03:28:15.963Z,92.72
2023-05-19T03:30:42.700Z,93.08
2023-05-19T03:33:17.277Z,93.40
2023-05-19T03:35:44.715Z,93.40
2023-05-19T03:38:12.337Z,93.98
2023-05-19T03:40:41.853Z,93.97
2023-05-19T03:43:11.031Z,93.96
2023-05-19T03:45:45.262Z,94.17
2023-05-19T03:48:34.846Z,94.06
2023-05-19T03:51:20.050Z,94.59
2023-05-19T03:53:49.544Z,95.21
2023-05-19T03:56:18.133Z,95.43
2023-05-19T03:58:45.063Z,95.47
2023-05-19T04:01:12.016Z,95.20
2023-05-19T04:03:38.774Z,95.92
2023-05-19T04:06:05.852Z,95.73
2023-05-19T04:08:32.539Z,96.08
2023-05-19T04:10:59.237Z,96.39
2023-05-19T04:13:25.953Z,96.69
2023-05-19T04:15:52.971Z,97.27
2023-05-19T04:18:19.809Z,97.86
2023-05-19T04:20:46.483Z,98.21
2023-05-19T04:23:13.053Z,97.77
2023-05-19T04:25:40.937Z,97.39
2023-05-19T04:28:07.797Z,97.78
2023-05-19T04:30:35.110Z,97.54
2023-05-19T04:33:03.785Z,97.54
2023-05-19T04:35:30.935Z,98.96
2023-05-19T04:37:59.944Z,98.19
2023-05-19T04:40:31.516Z,98.58
2023-05-19T04:42:58.989Z,98.38
2023-05-19T04:45:26.142Z,98.49
2023-05-19T04:47:58.064Z,98.21
2023-05-19T04:50:25.302Z,97.34
2023-05-19T04:52:52.628Z,97.60
2023-05-19T04:55:19.640Z,97.79
2023-05-19T04:57:48.025Z,97.05
2023-05-19T05:00:15.608Z,97.44
2023-05-19T05:03:05.120Z,97.05
2023-05-19T05:05:32.826Z,97.06
2023-05-19T05:08:00.173Z,96.12
2023-05-19T05:10:32.082Z,95.59
2023-05-19T05:12:59.279Z,95.74
2023-05-19T05:15:28.821Z,93.76
2023-05-19T05:17:58.070Z,92.08
2023-05-19T05:20:25.450Z,91.45
2023-05-19T05:22:52.449Z,90.16
2023-05-19T05:25:20.810Z,87.89
2023-05-19T05:27:48.657Z,86.73
2023-05-19T05:30:16.866Z,86.11
2023-05-19T05:32:43.794Z,84.38
2023-05-19T05:35:24.045Z,83.21
2023-05-19T05:37:50.926Z,82.75
2023-05-19T05:40:17.735Z,80.67
2023-05-19T05:42:44.538Z,79.84
2023-05-19T05:45:11.509Z,79.30
2023-05-19T05:47:41.357Z,79.21
2023-05-19T05:50:09.102Z,78.63
2023-05-19T05:52:37.627Z,77.34
2023-05-19T05:55:05.496Z,78.10
2023-05-19T05:57:35.320Z,77.22
2023-05-19T06:00:02.308Z,77.16
2023-05-19T06:02:30.785Z,76.31
2023-05-19T06:04:58.620Z,75.63
2023-05-19T06:07:25.420Z,75.85
2023-05-19T06:09:52.124Z,75.51
2023-05-19T06:12:19.382Z,74.39
2023-05-19T06:14:49.291Z,76.41
2023-05-19T06:17:37.798Z,75.39
2023-05-19T06:20:08.533Z,71.73
2023-05-19T06:22:35.309Z,71.89
2023-05-19T06:25:05.219Z,71.09
2023-05-19T06:27:34.882Z,70.64
2023-05-19T06:30:03.373Z,69.27
2023-05-19T06:32:35.907Z,64.59
2023-05-19T06:35:02.582Z,66.77
2023-05-19T06:37:30.102Z,65.36
2023-05-19T06:39:57.114Z,65.60
2023-05-19T06:42:25.390Z,65.13
2023-05-19T06:45:07.245Z,63.18
2023-05-19T06:47:33.918Z,61.75
2023-05-19T06:50:00.751Z,60.25
2023-05-19T06:52:31.214Z,60.77
2023-05-19T06:54:58.012Z,62.14
2023-05-19T06:57:24.980Z,60.10
2023-05-19T06:59:51.629Z,59.28
2023-05-19T07:02:18.653Z,58.15
2023-05-19T07:04:45.361Z,58.61
2023-05-19T07:07:15.646Z,58.01
2023-05-19T07:09:43.151Z,59.88
2023-05-19T07:12:09.843Z,60.11
2023-05-19T07:14:38.825Z,57.38
2023-05-19T07:17:05.886Z,56.50
2023-05-19T07:19:33.652Z,54.36
2023-05-19T07:22:00.295Z,54.69
2023-05-19T07:24:27.546Z,54.24
2023-05-19T07:26:54.224Z,53.56
2023-05-19T07:29:20.853Z,53.24
2023-05-19T07:31:47.527Z,52.70
2023-05-19T07:34:14.190Z,52.34
2023-05-19T07:36:41.575Z,52.80
2023-05-19T07:39:08.353Z,53.33
2023-05-19T07:41:36.370Z,54.30
2023-05-19T07:44:07.490Z,51.81
2023-05-19T07:46:35.145Z,51.54
2023-05-19T07:49:01.770Z,52.02
2023-05-19T07:51:28.371Z,52.39
2023-05-19T07:53:54.997Z,50.11
2023-05-19T07:56:21.764Z,50.35
2023-05-19T07:58:48.415Z,49.63
2023-05-19T08:01:15.028Z,49.55
2023-05-19T08:03:41.660Z,48.85
2023-05-19T08:06:08.364Z,48.99
2023-05-19T08:08:34.966Z,49.78
2023-05-19T08:11:03.603Z,48.74
2023-05-19T08:13:31.144Z,49.67
2023-05-19T08:15:59.862Z,47.21
2023-05-19T08:18:26.820Z,47.92
2023-05-19T08:20:53.519Z,49.42
2023-05-19T08:23:20.136Z,46.60
2023-05-19T08:25:46.867Z,47.69
2023-05-19T08:28:13.951Z,47.49
2023-05-19T08:30:40.788Z,48.25
2023-05-19T08:33:08.442Z,46.65
2023-05-19T08:35:35.120Z,46.67
2023-05-19T08:38:01.750Z,46.67
2023-05-19T08:40:31.495Z,46.23
2023-05-19T08:42:58.469Z,46.62
2023-05-19T08:45:25.131Z,46.14
2023-05-19T08:47:52.348Z,46.52
2023-05-19T08:50:24.902Z,44.23
2023-05-19T08:53:28.945Z,47.30
2023-05-19T08:56:04.685Z,47.73
2023-05-19T08:58:32.297Z,45.56
2023-05-19T09:01:00.975Z,46.00
2023-05-19T09:03:29.124Z,43.45
2023-05-19T09:05:56.189Z,42.81
2023-05-19T09:08:22.885Z,42.23
2023-05-19T09:10:49.484Z,43.02
2023-05-19T09:13:16.570Z,43.73
2023-05-19T09:15:45.590Z,45.00
2023-05-19T09:18:13.844Z,43.66
2023-05-19T09:20:42.919Z,43.85
2023-05-19T09:23:15.026Z,42.45
2023-05-19T09:25:53.918Z,42.70
2023-05-19T09:28:28.057Z,43.12
2023-05-19T09:31:05.510Z,42.68
2023-05-19T09:33:45.505Z,42.71
2023-05-19T09:36:13.829Z,42.62
2023-05-19T09:38:40.657Z,42.74
2023-05-19T09:41:08.766Z,42.10
2023-05-19T09:43:36.462Z,41.59
2023-05-19T09:46:08.086Z,42.58
2023-05-19T09:48:36.561Z,42.07
2023-05-19T09:51:06.219Z,41.83
2023-05-19T09:53:34.172Z,41.57
2023-05-19T09:56:01.985Z,41.48
2023-05-19T09:58:35.189Z,42.66
2023-05-19T10:01:03.728Z,42.82
2023-05-19T10:03:33.004Z,42.25
2023-05-19T10:06:01.367Z,41.32
2023-05-19T10:08:30.636Z,41.58
2023-05-19T10:10:57.870Z,39.82
2023-05-19T10:13:25.830Z,42.57
2023-05-19T10:15:59.027Z,44.40
2023-05-19T10:18:27.853Z,41.39
2023-05-19T10:20:54.971Z,42.51
2023-05-19T10:23:22.537Z,41.64
2023-05-19T10:25:53.731Z,41.47
2023-05-19T10:28:26.609Z,39.89
2023-05-19T10:30:56.036Z,39.23
2023-05-19T10:33:29.449Z,40.62
2023-05-19T10:36:33.336Z,39.45
2023-05-19T10:39:13.232Z,40.17
2023-05-19T10:41:39.799Z,41.76
2023-05-19T10:44:35.119Z,42.73
2023-05-19T10:47:01.824Z,42.70
2023-05-19T10:49:28.851Z,43.08
2023-05-19T10:51:58.840Z,42.36
2023-05-19T10:54:43.446Z,41.16
2023-05-19T10:57:15.002Z,41.92
2023-05-19T10:59:42.048Z,42.68
2023-05-19T11:02:09.294Z,42.85
2023-05-19T11:04:40.093Z,41.93
2023-05-19T11:07:09.452Z,41.23
2023-05-19T11:09:42.916Z,41.52
2023-05-19T11:12:10.948Z,40.83
2023-05-19T11:14:37.829Z,39.84
2023-05-19T11:17:05.589Z,41.87
2023-05-19T11:19:35.135Z,42.85
2023-05-19T11:22:11.393Z,40.75
2023-05-19T11:24:50.533Z,41.89
2023-05-19T11:27:31.329Z,43.49
2023-05-19T11:30:20.070Z,43.41
2023-05-19T11:32:50.558Z,42.17
2023-05-19T11:35:19.079Z,42.94
2023-05-19T11:37:47.685Z,41.56
2023-05-19T11:40:15.689Z,41.49
2023-05-19T11:42:42.344Z,41.67
2023-05-19T11:45:09.714Z,41.96
2023-05-19T11:47:50.705Z,41.58
2023-05-19T11:50:24.312Z,41.35
2023-05-19T11:52:55.138Z,40.80
2023-05-19T11:55:22.832Z,40.62
2023-05-19T11:58:03.887Z,40.23
2023-05-19T12:00:40.017Z,39.53
2023-05-19T12:03:07.823Z,42.16
2023-05-19T12:05:41.936Z,38.10
2023-05-19T12:08:10.334Z,38.39
2023-05-19T12:10:38.371Z,37.81
2023-05-19T12:13:08.072Z,38.21
2023-05-19T12:15:35.281Z,38.27
2023-05-19T12:18:02.879Z,38.04
2023-05-19T12:20:32.602Z,38.82
2023-05-19T12:23:00.225Z,39.00
2023-05-19T12:25:27.748Z,38.85
2023-05-19T12:27:58.776Z,39.76
2023-05-19T12:30:29.811Z,40.06
2023-05-19T12:33:00.195Z,40.36
2023-05-19T12:35:33.634Z,39.59
2023-05-19T12:38:06.880Z,40.06
2023-05-19T12:40:37.778Z,38.82
2023-05-19T12:43:05.617Z,37.96
2023-05-19T12:45:36.767Z,37.62
2023-05-19T12:48:06.980Z,38.45
2023-05-19T12:50:36.558Z,38.88
2023-05-19T12:53:03.587Z,38.22
2023-05-19T12:55:30.466Z,37.34
2023-05-19T12:57:58.594Z,37.01
2023-05-19T13:00:28.927Z,36.51
2023-05-19T13:03:14.611Z,36.91
2023-05-19T13:05:46.549Z,36.85
2023-05-19T13:08:18.506Z,38.18
2023-05-19T13:10:46.473Z,37.65
2023-05-19T13:13:13.558Z,38.67
2023-05-19T13:15:44.958Z,37.39
2023-05-19T13:18:13.757Z,36.54
2023-05-19T13:20:42.066Z,37.50
2023-05-19T13:23:10.891Z,35.52
2023-05-19T13:25:37.694Z,37.10
2023-05-19T13:28:07.993Z,35.16
2023-05-19T13:30:37.914Z,37.71
2023-05-19T13:33:05.455Z,36.01
2023-05-19T13:35:37.553Z,36.64
2023-05-19T13:38:05.641Z,37.84
2023-05-19T13:40:35.221Z,37.55
2023-05-19T13:43:04.601Z,36.84
2023-05-19T13:45:31.457Z,37.10
2023-05-19T13:47:58.250Z,37.12
2023-05-19T13:50:25.079Z,37.19
2023-05-19T13:52:52.006Z,36.63
2023-05-19T13:55:19.054Z,36.68
2023-05-19T13:57:45.731Z,35.28
2023-05-19T14:00:12.717Z,36.17
2023-05-19T14:02:40.050Z,37.42
2023-05-19T14:05:07.468Z,37.08
2023-05-19T14:07:37.077Z,37.76
2023-05-19T14:10:06.386Z,37.77
2023-05-19T14:12:43.584Z,36.27
2023-05-19T14:15:17.956Z,37.29
2023-05-19T14:17:44.808Z,38.53
2023-05-19T14:20:12.501Z,39.98
2023-05-19T14:22:39.112Z,36.68
2023-05-19T14:25:06.431Z,36.85
2023-05-19T14:27:33.068Z,35.26
2023-05-19T14:29:59.710Z,36.25
2023-05-19T14:32:28.655Z,35.89
2023-05-19T14:34:56.824Z,36.47
2023-05-19T14:37:24.174Z,36.00
2023-05-19T14:39:50.896Z,36.32
2023-05-19T14:42:17.582Z,37.15
2023-05-19T14:44:44.207Z,37.90
2023-05-19T14:47:12.296Z,38.38
2023-05-19T14:49:39.027Z,37.60
2023-05-19T14:52:05.806Z,38.85
2023-05-19T14:54:32.515Z,38.78
2023-05-19T14:56:59.248Z,38.79
2023-05-19T14:59:25.993Z,37.79
2023-05-19T15:01:52.663Z,37.35
2023-05-19T15:04:19.421Z,36.77
2023-05-19T15:06:48.198Z,37.36
2023-05-19T15:09:19.095Z,37.41
2023-05-19T15:11:45.977Z,36.58
2023-05-19T15:14:12.882Z,36.83
2023-05-19T15:16:39.742Z,37.75
2023-05-19T15:19:31.607Z,37.97
2023-05-19T15:21:58.463Z,38.09
2023-05-19T15:24:25.365Z,36.89
2023-05-19T15:26:52.514Z,36.87
2023-05-19T15:29:19.230Z,37.08
2023-05-19T15:31:46.300Z,37.72
2023-05-19T15:34:13.188Z,37.02
2023-05-19T15:36:39.921Z,36.27
2023-05-19T15:39:06.694Z,36.41
2023-05-19T15:41:33.411Z,36.78
2023-05-19T15:44:00.651Z,36.17
2023-05-19T15:46:27.631Z,36.67
2023-05-19T15:48:54.660Z,37.28
2023-05-19T15:51:21.557Z,36.74
2023-05-19T15:53:48.348Z,37.39
2023-05-19T15:56:15.351Z,36.81
2023-05-19T15:58:42.245Z,36.74
2023-05-19T16:01:09.095Z,35.95
2023-05-19T16:03:35.836Z,36.54
2023-05-19T16:06:02.951Z,36.91
2023-05-19T16:08:29.923Z,37.12
2023-05-19T16:10:56.808Z,38.39
2023-05-19T16:13:23.724Z,36.64
2023-05-19T16:15:50.768Z,36.70
2023-05-19T16:18:17.760Z,37.40
2023-05-19T16:20:44.773Z,36.50
2023-05-19T16:23:11.446Z,36.34
2023-05-19T16:25:38.154Z,37.04
2023-05-19T16:28:05.273Z,38.05
2023-05-19T16:30:32.221Z,37.58
2023-05-19T16:32:59.342Z,37.50
2023-05-19T16:35:27.888Z,37.44
2023-05-19T16:37:54.949Z,37.08
2023-05-19T16:40:21.638Z,37.30
2023-05-19T16:42:48.334Z,37.52
2023-05-19T16:45:17.511Z,37.12
2023-05-19T16:47:44.685Z,36.94
2023-05-19T16:50:14.661Z,37.03
2023-05-19T16:52:41.308Z,36.99
2023-05-19T16:55:08.428Z,37.28
2023-05-19T16:57:35.031Z,37.78
2023-05-19T17:00:01.710Z,37.51
2023-05-19T17:02:28.540Z,37.78
2023-05-19T17:04:55.565Z,38.53
2023-05-19T17:07:22.267Z,38.30
2023-05-19T17:09:49.066Z,38.67
2023-05-19T17:12:15.924Z,38.70
2023-05-19T17:14:43.533Z,39.39
2023-05-19T17:17:10.476Z,39.53
2023-05-19T17:19:37.221Z,39.28
2023-05-19T17:22:04.221Z,39.21
2023-05-19T17:24:33.128Z,39.97
2023-05-19T17:27:00.544Z,39.72
2023-05-19T17:29:27.932Z,39.67
2023-05-19T17:31:55.475Z,38.94
2023-05-19T17:34:22.209Z,40.06
2023-05-19T17:36:49.734Z,39.91
2023-05-19T17:39:16.625Z,39.08
2023-05-19T17:41:43.405Z,39.54
2023-05-19T17:44:10.044Z,38.92
2023-05-19T17:46:38.796Z,39.35
2023-05-19T17:49:06.325Z,38.44
2023-05-19T17:51:33.357Z,38.81
2023-05-19T17:54:00.388Z,39.19
2023-05-19T17:56:30.344Z,39.21
2023-05-19T17:58:57.141Z,39.37
2023-05-19T18:01:25.748Z,39.60
2023-05-19T18:03:52.872Z,40.09
2023-05-19T18:06:20.385Z,40.43
2023-05-19T18:08:50.365Z,40.48
2023-05-19T18:11:18.105Z,40.50
2023-05-19T18:13:44.879Z,41.05
2023-05-19T18:16:12.292Z,41.13
2023-05-19T18:18:41.143Z,41.30
2023-05-19T18:21:08.024Z,41.43
2023-05-19T18:23:34.727Z,41.53
2023-05-19T18:26:01.415Z,41.34
2023-05-19T18:28:29.647Z,41.26
2023-05-19T18:31:00.779Z,41.35
2023-05-19T18:33:28.726Z,41.43
2023-05-19T18:35:57.776Z,41.76
2023-05-19T18:38:24.475Z,41.75
2023-05-19T18:40:51.322Z,41.92
2023-05-19T18:43:21.724Z,42.76
2023-05-19T18:45:48.585Z,42.70
2023-05-19T18:48:15.806Z,43.17
2023-05-19T18:50:44.521Z,42.84
2023-05-19T18:53:11.905Z,43.08
2023-05-19T18:55:38.696Z,43.06
2023-05-19T18:58:06.182Z,43.37
2023-05-19T19:00:37.537Z,43.67
2023-05-19T19:03:04.543Z,44.33
2023-05-19T19:05:31.311Z,44.42
2023-05-19T19:07:58.078Z,44.76
2023-05-19T19:10:24.699Z,45.04
2023-05-19T19:12:51.325Z,45.26
2023-05-19T19:15:17.978Z,45.12
2023-05-19T19:17:45.652Z,45.47
2023-05-19T19:20:12.788Z,45.95
2023-05-19T19:22:39.435Z,45.93
2023-05-19T19:25:06.297Z,46.05
2023-05-19T19:27:35.479Z,46.08
2023-05-19T19:30:02.277Z,46.34
2023-05-19T19:32:31.309Z,46.32
2023-05-19T19:34:58.219Z,46.43
2023-05-19T19:37:24.926Z,46.67
2023-05-19T19:39:51.641Z,46.65
2023-05-19T19:42:18.843Z,46.60
2023-05-19T19:44:45.590Z,46.56
2023-05-19T19:47:12.192Z,46.71
2023-05-19T19:49:38.792Z,46.48
2023-05-19T19:52:05.870Z,46.76
2023-05-19T19:54:32.609Z,46.88
2023-05-19T19:56:59.233Z,47.53
2023-05-19T19:59:26.902Z,47.47
2023-05-19T20:01:53.643Z,47.85
2023-05-19T20:04:20.785Z,47.85
2023-05-19T20:06:47.507Z,47.91
2023-05-19T20:09:14.190Z,47.91
2023-05-19T20:11:40.942Z,47.81
2023-05-19T20:14:07.728Z,48.37
2023-05-19T20:16:34.507Z,48.32
2023-05-19T20:19:01.673Z,48.60
2023-05-19T20:21:28.325Z,48.98
2023-05-19T20:23:55.003Z,49.61
2023-05-19T20:26:22.402Z,49.68
2023-05-19T20:28:49.162Z,49.61
2023-05-19T20:31:15.854Z,49.64
2023-05-19T20:33:42.506Z,49.43
2023-05-19T20:36:10.872Z,49.71
2023-05-19T20:38:37.541Z,50.04
2023-05-19T20:41:04.194Z,49.87
2023-05-19T20:43:32.060Z,50.27
2023-05-19T20:45:59.823Z,50.82
2023-05-19T20:48:26.698Z,50.43
2023-05-19T20:50:54.278Z,50.77
2023-05-19T20:53:21.703Z,50.60
2023-05-19T20:55:48.674Z,50.84
2023-05-19T20:58:15.498Z,50.96
2023-05-19T21:00:42.262Z,51.13
2023-05-19T21:03:09.090Z,50.82
2023-05-19T21:05:36.344Z,50.95
2023-05-19T21:08:03.388Z,51.42
2023-05-19T21:10:30.033Z,51.78
2023-05-19T21:12:58.747Z,52.02
2023-05-19T21:15:26.924Z,52.37
2023-05-19T21:17:53.605Z,53.17
2023-05-19T21:20:20.529Z,53.52
2023-05-19T21:22:47.118Z,53.66
2023-05-19T21:25:13.844Z,53.84
2023-05-19T21:27:40.654Z,54.09
2023-05-19T21:30:07.927Z,54.54
2023-05-19T21:32:34.643Z,54.84
2023-05-19T21:35:01.505Z,54.83
2023-05-19T21:37:28.231Z,54.59
2023-05-19T21:39:54.840Z,54.71
2023-05-19T21:42:21.577Z,54.49
2023-05-19T21:44:48.211Z,54.57
2023-05-19T21:47:15.796Z,54.80
2023-05-19T21:49:42.628Z,55.02
2023-05-19T21:52:09.605Z,54.92
2023-05-19T21:54:36.512Z,55.53
2023-05-19T21:57:03.577Z,55.80
2023-05-19T21:59:30.515Z,55.70
2023-05-19T22:01:57.202Z,55.75
2023-05-19T22:04:23.927Z,55.76
2023-05-19T22:06:50.555Z,55.86
2023-05-19T22:09:18.034Z,55.76
2023-05-19T22:11:44.917Z,56.90
2023-05-19T22:14:11.703Z,56.03
2023-05-19T22:16:38.417Z,55.68
2023-05-19T22:19:05.228Z,55.68
2023-05-19T22:21:32.041Z,55.94
2023-05-19T22:23:58.764Z,56.97
2023-05-19T22:26:26.014Z,57.47
2023-05-19T22:28:53.349Z,58.10
2023-05-19T22:31:20.010Z,58.70
2023-05-19T22:33:46.730Z,59.58
2023-05-19T22:36:15.952Z,59.62
2023-05-19T22:38:42.637Z,59.79
2023-05-19T22:41:09.309Z,60.34
2023-05-19T22:43:36.016Z,60.35
2023-05-19T22:46:02.718Z,60.41
2023-05-19T22:48:30.545Z,61.32
2023-05-19T22:50:57.385Z,60.82
2023-05-19T22:53:23.991Z,61.18
2023-05-19T22:55:50.658Z,61.01
2023-05-19T22:58:17.227Z,60.90
2023-05-19T23:00:43.835Z,60.99
2023-05-19T23:03:11.323Z,60.91
2023-05-19T23:05:37.980Z,61.68
2023-05-19T23:08:04.816Z,61.05
2023-05-19T23:10:31.433Z,61.23
2023-05-19T23:12:58.034Z,61.81
2023-05-19T23:15:24.707Z,61.98
2023-05-19T23:17:51.547Z,61.95
2023-05-19T23:20:18.340Z,61.85
2023-05-19T23:22:44.966Z,62.07
2023-05-19T23:25:12.211Z,62.94
2023-05-19T23:27:38.894Z,62.81
2023-05-19T23:30:06.542Z,62.97
2023-05-19T23:32:33.289Z,63.21
2023-05-19T23:35:11.496Z,63.30
2023-05-19T23:37:38.099Z,63.19
2023-05-19T23:40:06.471Z,63.53
2023-05-19T23:42:33.066Z,63.92
2023-05-19T23:44:59.718Z,64.04
2023-05-19T23:47:26.666Z,64.78
2023-05-19T23:49:53.332Z,63.89
2023-05-19T23:52:19.916Z,64.15
2023-05-19T23:54:46.575Z,64.15
2023-05-19T23:57:13.313Z,64.21
2023-05-19T23:59:39.909Z,64.39
